Česky Dansk Deutsch English Español Suomi Français Magyar Italiano Nederlands norsk Polski Português svenska Türkçe

 

Het Weer

Helsinki-Malmi (Finland)

21:20, 21 augustus 2016 (GMT)

NWNNE
WE
SWSSE
Home            
Helsinki-Malmi Helsinki-Vantaa Tallinn Utti Tampere / Pirkkala Turku Halli Kardla Lappeenranta Mikkeli Parnu Pori Tartu/Ulenurme Jyvaskyla Ahtari Varkaus Kuressaare Savonlinna Mariehamn / Aland Island St. Peterburg Seinajoki-Ilmajok Ilmajoki Viitasaari

Om een weerknop op uw website of weblog te plaatsen, copieer onderstaande code en plak die in uw pagina. In het eerste vakje staat HTML-code, in het tweede vakje UBB-code.


Add to Google

Details

Wind speed:3 bf, 7 kn, 3.6 m/s, 8.1 miles/h, 13.0 km/h
Wind direction:ESE, 110°
Visibility:Greater than 10000 m, 10 km, 32800 ft, 6.2 miles
Clouds:CAVOC
Temperature:20°C, 68°F
Dew-point:15°C, 59°F
Atmospheric pressure:1018 hPa, 763.6 mmHg, 30.06 inHg, 1.005 atm
Relative humidity:72.9 %
METAR:EFHF 212120Z AUTO 11007KT CAVOK 20/15 Q1018

Snelkoppelingen

Actuele weersinformatie van de hele wereld. Voeg locaties toe met het plus (+) symbool. Deze snelkoppelingen kunnen worden toegevoegd aan Google.

Lid van de Technetium groep

website free tracking
StatCounter NetStat W3C Validator

24-10-2020 02:40:01
astro.technetium.be money.technetium.be phote.technetium.be tafeltennistafel.technetium.be www.ligfiets.net